FMEE

Sainte-Marie/Roland Garros Airport

Airport
ICAO code
FMEE
IATA Code
RUN
Summary
ICAO Region
AFI
ICAO Territory
Location

Sainte Marie, Réunion

Serving
Saint-Denis
Elevation
66 ft
Coordinates
20° 53' 29" S , 55° 31' 4" E
Metar
FMEE 140700Z AUTO 09013KT 9999 -RA SCT025 BKN038 BKN047 24/21 Q1018 NOSIG

Roland Garros Airport, formerly known as Gillot Airport, is located in Sainte-Marie on Réunion, The airport is 7 kilometres east of Saint-Denis.

Runways

Designator Length Width Surface Rops
14/32 2670 45 ASP Yes/Yes
12/30 3200 45 ASP Yes/Yes

Airport map

Aerial View

SKYbrary Partners:

Safety knowledge contributed by: